sensor_id;sensor_type;location;lat;lon;timestamp;P1;durP1;ratioP1;P2;durP2;ratioP2
32812;SDS011;19162;48.254;11.454;2023-08-30T00:01:29;9.55;;;8.75;;
32812;SDS011;19162;48.254;11.454;2023-08-30T00:04:29;9.70;;;9.10;;
32812;SDS011;19162;48.254;11.454;2023-08-30T00:07:30;8.63;;;8.13;;
32812;SDS011;19162;48.254;11.454;2023-08-30T00:10:30;8.97;;;8.40;;
32812;SDS011;19162;48.254;11.454;2023-08-30T00:13:31;9.60;;;8.80;;
32812;SDS011;19162;48.254;11.454;2023-08-30T00:16:32;9.82;;;9.13;;
32812;SDS011;19162;48.254;11.454;2023-08-30T00:19:33;10.27;;;9.57;;
32812;SDS011;19162;48.254;11.454;2023-08-30T00:22:33;10.03;;;9.33;;
32812;SDS011;19162;48.254;11.454;2023-08-30T00:25:33;9.68;;;9.00;;
32812;SDS011;19162;48.254;11.454;2023-08-30T00:28:33;10.35;;;9.65;;
32812;SDS011;19162;48.254;11.454;2023-08-30T00:31:34;10.03;;;9.33;;
32812;SDS011;19162;48.254;11.454;2023-08-30T00:34:34;9.65;;;9.00;;
32812;SDS011;19162;48.254;11.454;2023-08-30T00:37:34;10.68;;;9.98;;
32812;SDS011;19162;48.254;11.454;2023-08-30T00:40:38;10.02;;;9.32;;
32812;SDS011;19162;48.254;11.454;2023-08-30T00:43:38;10.90;;;10.20;;
32812;SDS011;19162;48.254;11.454;2023-08-30T00:46:39;10.50;;;9.70;;
32812;SDS011;19162;48.254;11.454;2023-08-30T00:49:39;10.07;;;9.37;;
32812;SDS011;19162;48.254;11.454;2023-08-30T00:52:40;10.63;;;9.82;;
32812;SDS011;19162;48.254;11.454;2023-08-30T00:55:42;11.07;;;10.38;;
32812;SDS011;19162;48.254;11.454;2023-08-30T00:58:42;11.18;;;10.18;;
32812;SDS011;19162;48.254;11.454;2023-08-30T01:01:42;11.10;;;10.40;;
32812;SDS011;19162;48.254;11.454;2023-08-30T01:04:43;10.30;;;9.60;;
32812;SDS011;19162;48.254;11.454;2023-08-30T01:07:43;11.00;;;10.30;;
32812;SDS011;19162;48.254;11.454;2023-08-30T01:13:51;11.48;;;10.68;;
32812;SDS011;19162;48.254;11.454;2023-08-30T01:16:53;10.95;;;10.25;;
32812;SDS011;19162;48.254;11.454;2023-08-30T01:19:54;11.87;;;11.07;;
32812;SDS011;19162;48.254;11.454;2023-08-30T01:23:06;11.85;;;10.85;;
32812;SDS011;19162;48.254;11.454;2023-08-30T01:26:14;11.43;;;10.63;;
32812;SDS011;19162;48.254;11.454;2023-08-30T01:29:17;11.15;;;10.35;;
32812;SDS011;19162;48.254;11.454;2023-08-30T01:32:18;10.77;;;10.07;;
32812;SDS011;19162;48.254;11.454;2023-08-30T01:35:20;11.88;;;11.07;;
32812;SDS011;19162;48.254;11.454;2023-08-30T01:38:22;12.63;;;11.73;;
32812;SDS011;19162;48.254;11.454;2023-08-30T01:41:22;11.45;;;10.65;;
32812;SDS011;19162;48.254;11.454;2023-08-30T01:44:24;11.88;;;11.00;;
32812;SDS011;19162;48.254;11.454;2023-08-30T01:47:25;11.90;;;11.00;;
32812;SDS011;19162;48.254;11.454;2023-08-30T01:50:26;11.10;;;10.40;;
32812;SDS011;19162;48.254;11.454;2023-08-30T01:53:27;11.90;;;11.07;;
32812;SDS011;19162;48.254;11.454;2023-08-30T01:56:27;12.00;;;11.18;;
32812;SDS011;19162;48.254;11.454;2023-08-30T01:59:28;11.05;;;10.07;;
32812;SDS011;19162;48.254;11.454;2023-08-30T02:02:29;11.68;;;10.77;;
32812;SDS011;19162;48.254;11.454;2023-08-30T02:05:29;11.48;;;10.48;;
32812;SDS011;19162;48.254;11.454;2023-08-30T02:08:34;11.52;;;10.70;;
32812;SDS011;19162;48.254;11.454;2023-08-30T02:11:35;12.55;;;11.65;;
32812;SDS011;19162;48.254;11.454;2023-08-30T02:14:37;11.43;;;10.63;;
32812;SDS011;19162;48.254;11.454;2023-08-30T02:17:38;10.80;;;10.10;;
32812;SDS011;19162;48.254;11.454;2023-08-30T02:20:39;10.73;;;10.02;;
32812;SDS011;19162;48.254;11.454;2023-08-30T02:23:39;11.03;;;10.27;;
32812;SDS011;19162;48.254;11.454;2023-08-30T02:26:39;11.05;;;10.35;;
32812;SDS011;19162;48.254;11.454;2023-08-30T02:29:39;11.27;;;10.50;;
32812;SDS011;19162;48.254;11.454;2023-08-30T02:32:39;11.63;;;10.82;;
32812;SDS011;19162;48.254;11.454;2023-08-30T02:35:40;10.82;;;10.13;;
32812;SDS011;19162;48.254;11.454;2023-08-30T02:38:40;10.75;;;10.05;;
32812;SDS011;19162;48.254;11.454;2023-08-30T02:41:40;9.95;;;9.25;;
32812;SDS011;19162;48.254;11.454;2023-08-30T02:44:40;9.93;;;9.25;;
32812;SDS011;19162;48.254;11.454;2023-08-30T02:47:40;9.65;;;9.05;;
32812;SDS011;19162;48.254;11.454;2023-08-30T02:50:41;9.68;;;8.88;;
32812;SDS011;19162;48.254;11.454;2023-08-30T02:53:41;9.82;;;9.23;;
32812;SDS011;19162;48.254;11.454;2023-08-30T02:56:44;10.00;;;9.15;;
32812;SDS011;19162;48.254;11.454;2023-08-30T02:59:44;9.30;;;8.75;;
32812;SDS011;19162;48.254;11.454;2023-08-30T03:02:44;9.98;;;9.15;;
32812;SDS011;19162;48.254;11.454;2023-08-30T03:05:45;8.88;;;8.27;;
32812;SDS011;19162;48.254;11.454;2023-08-30T03:08:45;9.43;;;8.77;;
32812;SDS011;19162;48.254;11.454;2023-08-30T03:11:45;9.10;;;8.40;;
32812;SDS011;19162;48.254;11.454;2023-08-30T03:14:45;10.00;;;9.30;;
32812;SDS011;19162;48.254;11.454;2023-08-30T03:17:45;9.52;;;8.93;;
32812;SDS011;19162;48.254;11.454;2023-08-30T03:20:46;9.47;;;8.87;;
32812;SDS011;19162;48.254;11.454;2023-08-30T03:23:46;9.25;;;8.65;;
32812;SDS011;19162;48.254;11.454;2023-08-30T03:26:46;9.38;;;8.77;;
32812;SDS011;19162;48.254;11.454;2023-08-30T03:29:46;8.95;;;8.25;;
32812;SDS011;19162;48.254;11.454;2023-08-30T03:32:46;9.30;;;8.70;;
32812;SDS011;19162;48.254;11.454;2023-08-30T03:35:47;10.67;;;9.97;;
32812;SDS011;19162;48.254;11.454;2023-08-30T03:38:47;9.03;;;8.43;;
32812;SDS011;19162;48.254;11.454;2023-08-30T03:41:47;9.65;;;8.95;;
32812;SDS011;19162;48.254;11.454;2023-08-30T03:44:47;8.57;;;8.03;;
32812;SDS011;19162;48.254;11.454;2023-08-30T03:47:47;8.95;;;8.35;;
32812;SDS011;19162;48.254;11.454;2023-08-30T03:50:48;9.73;;;9.03;;
32812;SDS011;19162;48.254;11.454;2023-08-30T03:53:48;9.57;;;8.88;;
32812;SDS011;19162;48.254;11.454;2023-08-30T03:56:48;8.90;;;8.30;;
32812;SDS011;19162;48.254;11.454;2023-08-30T03:59:48;9.07;;;8.43;;
32812;SDS011;19162;48.254;11.454;2023-08-30T04:02:48;8.88;;;7.97;;
32812;SDS011;19162;48.254;11.454;2023-08-30T04:05:54;10.05;;;9.35;;
32812;SDS011;19162;48.254;11.454;2023-08-30T04:08:54;9.98;;;9.05;;
32812;SDS011;19162;48.254;11.454;2023-08-30T04:11:54;9.32;;;8.73;;
32812;SDS011;19162;48.254;11.454;2023-08-30T04:14:54;9.02;;;8.43;;
32812;SDS011;19162;48.254;11.454;2023-08-30T04:17:55;8.20;;;7.70;;
32812;SDS011;19162;48.254;11.454;2023-08-30T04:20:56;9.68;;;9.07;;
32812;SDS011;19162;48.254;11.454;2023-08-30T04:23:57;9.68;;;9.05;;
32812;SDS011;19162;48.254;11.454;2023-08-30T04:26:57;9.82;;;9.13;;
32812;SDS011;19162;48.254;11.454;2023-08-30T04:29:57;9.68;;;9.00;;
32812;SDS011;19162;48.254;11.454;2023-08-30T04:32:57;9.32;;;8.65;;
32812;SDS011;19162;48.254;11.454;2023-08-30T04:35:57;9.85;;;9.15;;
32812;SDS011;19162;48.254;11.454;2023-08-30T04:42:00;10.17;;;9.47;;
32812;SDS011;19162;48.254;11.454;2023-08-30T04:45:03;10.32;;;9.63;;
32812;SDS011;19162;48.254;11.454;2023-08-30T04:48:03;10.20;;;9.55;;
32812;SDS011;19162;48.254;11.454;2023-08-30T04:51:04;10.10;;;9.30;;
32812;SDS011;19162;48.254;11.454;2023-08-30T04:54:04;9.95;;;9.25;;
32812;SDS011;19162;48.254;11.454;2023-08-30T04:57:04;10.20;;;9.50;;
32812;SDS011;19162;48.254;11.454;2023-08-30T05:00:05;10.20;;;9.50;;
32812;SDS011;19162;48.254;11.454;2023-08-30T05:03:05;10.15;;;9.20;;
32812;SDS011;19162;48.254;11.454;2023-08-30T05:06:05;10.50;;;9.80;;
32812;SDS011;19162;48.254;11.454;2023-08-30T05:09:05;9.43;;;8.83;;
32812;SDS011;19162;48.254;11.454;2023-08-30T05:12:06;10.10;;;9.48;;
32812;SDS011;19162;48.254;11.454;2023-08-30T05:15:07;10.52;;;9.75;;
32812;SDS011;19162;48.254;11.454;2023-08-30T05:18:07;10.65;;;9.88;;
32812;SDS011;19162;48.254;11.454;2023-08-30T05:21:08;10.30;;;9.60;;
32812;SDS011;19162;48.254;11.454;2023-08-30T05:24:08;11.87;;;11.07;;
32812;SDS011;19162;48.254;11.454;2023-08-30T05:27:08;12.07;;;11.27;;
32812;SDS011;19162;48.254;11.454;2023-08-30T05:30:08;10.80;;;10.00;;
32812;SDS011;19162;48.254;11.454;2023-08-30T05:33:09;10.75;;;10.02;;
32812;SDS011;19162;48.254;11.454;2023-08-30T05:36:09;10.20;;;9.50;;
32812;SDS011;19162;48.254;11.454;2023-08-30T05:39:09;10.52;;;9.73;;
32812;SDS011;19162;48.254;11.454;2023-08-30T05:42:09;10.25;;;9.55;;
32812;SDS011;19162;48.254;11.454;2023-08-30T05:45:09;10.50;;;9.80;;
32812;SDS011;19162;48.254;11.454;2023-08-30T05:48:10;9.57;;;8.90;;
32812;SDS011;19162;48.254;11.454;2023-08-30T05:51:10;9.82;;;9.18;;
32812;SDS011;19162;48.254;11.454;2023-08-30T05:54:10;9.93;;;9.23;;
32812;SDS011;19162;48.254;11.454;2023-08-30T05:57:10;10.00;;;9.27;;
32812;SDS011;19162;48.254;11.454;2023-08-30T06:00:10;10.15;;;9.45;;
32812;SDS011;19162;48.254;11.454;2023-08-30T06:03:13;11.48;;;10.68;;
32812;SDS011;19162;48.254;11.454;2023-08-30T06:06:13;10.53;;;9.77;;
32812;SDS011;19162;48.254;11.454;2023-08-30T06:09:13;11.02;;;10.00;;
32812;SDS011;19162;48.254;11.454;2023-08-30T06:12:13;10.57;;;9.77;;
32812;SDS011;19162;48.254;11.454;2023-08-30T06:15:14;10.27;;;9.57;;
32812;SDS011;19162;48.254;11.454;2023-08-30T06:18:14;9.37;;;8.67;;
32812;SDS011;19162;48.254;11.454;2023-08-30T06:21:14;10.83;;;10.10;;
32812;SDS011;19162;48.254;11.454;2023-08-30T06:24:14;11.05;;;10.35;;
32812;SDS011;19162;48.254;11.454;2023-08-30T06:27:14;10.02;;;9.40;;
32812;SDS011;19162;48.254;11.454;2023-08-30T06:30:15;11.27;;;10.47;;
32812;SDS011;19162;48.254;11.454;2023-08-30T06:33:15;10.77;;;10.07;;
32812;SDS011;19162;48.254;11.454;2023-08-30T06:36:15;10.23;;;9.57;;
32812;SDS011;19162;48.254;11.454;2023-08-30T06:39:17;9.98;;;9.30;;
32812;SDS011;19162;48.254;11.454;2023-08-30T06:42:17;10.32;;;9.70;;
32812;SDS011;19162;48.254;11.454;2023-08-30T06:45:17;10.70;;;9.97;;
32812;SDS011;19162;48.254;11.454;2023-08-30T06:48:18;11.17;;;10.30;;
32812;SDS011;19162;48.254;11.454;2023-08-30T06:51:18;11.60;;;10.80;;
32812;SDS011;19162;48.254;11.454;2023-08-30T06:54:18;11.17;;;10.47;;
32812;SDS011;19162;48.254;11.454;2023-08-30T06:57:18;11.60;;;10.80;;
32812;SDS011;19162;48.254;11.454;2023-08-30T07:00:18;11.05;;;10.35;;
32812;SDS011;19162;48.254;11.454;2023-08-30T07:03:19;11.30;;;10.48;;
32812;SDS011;19162;48.254;11.454;2023-08-30T07:06:19;11.65;;;10.88;;
32812;SDS011;19162;48.254;11.454;2023-08-30T07:09:19;11.47;;;10.67;;
32812;SDS011;19162;48.254;11.454;2023-08-30T07:12:20;11.45;;;10.65;;
32812;SDS011;19162;48.254;11.454;2023-08-30T07:15:20;11.80;;;11.00;;
32812;SDS011;19162;48.254;11.454;2023-08-30T07:18:20;11.98;;;11.07;;
32812;SDS011;19162;48.254;11.454;2023-08-30T07:21:20;11.77;;;10.93;;
32812;SDS011;19162;48.254;11.454;2023-08-30T07:24:21;12.87;;;12.03;;
32812;SDS011;19162;48.254;11.454;2023-08-30T07:27:22;12.10;;;11.30;;
32812;SDS011;19162;48.254;11.454;2023-08-30T07:30:23;11.40;;;10.63;;
32812;SDS011;19162;48.254;11.454;2023-08-30T07:33:23;11.75;;;11.00;;
32812;SDS011;19162;48.254;11.454;2023-08-30T07:36:23;11.73;;;10.93;;
32812;SDS011;19162;48.254;11.454;2023-08-30T07:39:23;11.45;;;10.65;;
32812;SDS011;19162;48.254;11.454;2023-08-30T07:42:23;10.70;;;10.00;;
32812;SDS011;19162;48.254;11.454;2023-08-30T07:45:24;11.90;;;11.03;;
32812;SDS011;19162;48.254;11.454;2023-08-30T07:48:24;12.10;;;11.25;;
32812;SDS011;19162;48.254;11.454;2023-08-30T07:51:24;10.40;;;9.63;;
32812;SDS011;19162;48.254;11.454;2023-08-30T07:54:24;10.95;;;10.23;;
32812;SDS011;19162;48.254;11.454;2023-08-30T07:57:24;11.60;;;10.80;;
32812;SDS011;19162;48.254;11.454;2023-08-30T08:00:25;11.03;;;10.33;;
32812;SDS011;19162;48.254;11.454;2023-08-30T08:03:25;10.23;;;9.52;;
32812;SDS011;19162;48.254;11.454;2023-08-30T08:06:25;11.97;;;11.17;;
32812;SDS011;19162;48.254;11.454;2023-08-30T08:09:25;10.60;;;9.90;;
32812;SDS011;19162;48.254;11.454;2023-08-30T08:12:26;10.70;;;10.00;;
32812;SDS011;19162;48.254;11.454;2023-08-30T08:15:27;12.07;;;11.15;;
32812;SDS011;19162;48.254;11.454;2023-08-30T08:18:29;12.25;;;11.45;;
32812;SDS011;19162;48.254;11.454;2023-08-30T08:21:29;13.53;;;12.63;;
32812;SDS011;19162;48.254;11.454;2023-08-30T08:24:29;11.25;;;10.52;;
32812;SDS011;19162;48.254;11.454;2023-08-30T08:27:29;9.57;;;8.98;;
32812;SDS011;19162;48.254;11.454;2023-08-30T08:30:30;10.18;;;9.48;;
32812;SDS011;19162;48.254;11.454;2023-08-30T08:33:30;9.63;;;8.93;;
32812;SDS011;19162;48.254;11.454;2023-08-30T08:36:30;9.18;;;8.57;;
32812;SDS011;19162;48.254;11.454;2023-08-30T08:39:31;9.38;;;8.57;;
32812;SDS011;19162;48.254;11.454;2023-08-30T08:42:31;9.30;;;8.60;;
32812;SDS011;19162;48.254;11.454;2023-08-30T08:45:34;7.75;;;7.25;;
32812;SDS011;19162;48.254;11.454;2023-08-30T08:48:37;8.32;;;7.72;;
32812;SDS011;19162;48.254;11.454;2023-08-30T08:51:39;9.48;;;8.77;;
32812;SDS011;19162;48.254;11.454;2023-08-30T08:54:40;9.07;;;8.38;;
32812;SDS011;19162;48.254;11.454;2023-08-30T08:57:40;7.80;;;7.20;;
32812;SDS011;19162;48.254;11.454;2023-08-30T09:00:43;7.68;;;7.10;;
32812;SDS011;19162;48.254;11.454;2023-08-30T09:03:44;7.25;;;6.75;;
32812;SDS011;19162;48.254;11.454;2023-08-30T09:06:44;6.60;;;6.20;;
32812;SDS011;19162;48.254;11.454;2023-08-30T09:09:45;6.70;;;6.20;;
32812;SDS011;19162;48.254;11.454;2023-08-30T09:12:45;6.70;;;6.30;;
32812;SDS011;19162;48.254;11.454;2023-08-30T09:15:45;6.70;;;6.20;;
32812;SDS011;19162;48.254;11.454;2023-08-30T09:18:56;6.23;;;5.73;;
32812;SDS011;19162;48.254;11.454;2023-08-30T09:21:57;4.93;;;4.57;;
32812;SDS011;19162;48.254;11.454;2023-08-30T09:24:57;6.43;;;5.85;;
32812;SDS011;19162;48.254;11.454;2023-08-30T09:27:57;6.13;;;5.72;;
32812;SDS011;19162;48.254;11.454;2023-08-30T09:30:59;5.97;;;5.57;;
32812;SDS011;19162;48.254;11.454;2023-08-30T09:34:00;6.00;;;5.60;;
32812;SDS011;19162;48.254;11.454;2023-08-30T09:37:01;5.43;;;4.97;;
32812;SDS011;19162;48.254;11.454;2023-08-30T09:40:02;7.03;;;6.47;;
32812;SDS011;19162;48.254;11.454;2023-08-30T09:43:02;6.10;;;5.70;;
32812;SDS011;19162;48.254;11.454;2023-08-30T09:46:03;5.10;;;4.78;;
32812;SDS011;19162;48.254;11.454;2023-08-30T09:49:04;5.30;;;4.90;;
32812;SDS011;19162;48.254;11.454;2023-08-30T09:52:05;4.63;;;4.22;;
32812;SDS011;19162;48.254;11.454;2023-08-30T09:55:08;4.90;;;4.60;;
32812;SDS011;19162;48.254;11.454;2023-08-30T09:58:09;5.43;;;5.03;;
32812;SDS011;19162;48.254;11.454;2023-08-30T10:01:09;6.03;;;5.60;;
32812;SDS011;19162;48.254;11.454;2023-08-30T10:04:10;5.50;;;5.10;;
32812;SDS011;19162;48.254;11.454;2023-08-30T10:07:11;5.15;;;4.80;;
32812;SDS011;19162;48.254;11.454;2023-08-30T10:10:11;4.63;;;4.32;;
32812;SDS011;19162;48.254;11.454;2023-08-30T10:13:11;4.43;;;4.03;;
32812;SDS011;19162;48.254;11.454;2023-08-30T10:16:14;4.65;;;4.25;;
32812;SDS011;19162;48.254;11.454;2023-08-30T10:19:16;3.88;;;3.60;;
32812;SDS011;19162;48.254;11.454;2023-08-30T10:22:17;3.40;;;3.10;;
32812;SDS011;19162;48.254;11.454;2023-08-30T10:25:19;3.45;;;2.92;;
32812;SDS011;19162;48.254;11.454;2023-08-30T10:28:21;4.00;;;3.63;;
32812;SDS011;19162;48.254;11.454;2023-08-30T10:31:23;3.10;;;2.90;;
32812;SDS011;19162;48.254;11.454;2023-08-30T10:34:23;3.20;;;3.00;;
32812;SDS011;19162;48.254;11.454;2023-08-30T10:37:26;3.33;;;3.08;;
32812;SDS011;19162;48.254;11.454;2023-08-30T10:40:26;2.30;;;2.10;;
32812;SDS011;19162;48.254;11.454;2023-08-30T10:43:30;2.67;;;2.47;;
32812;SDS011;19162;48.254;11.454;2023-08-30T10:46:31;2.97;;;2.67;;
32812;SDS011;19162;48.254;11.454;2023-08-30T10:49:38;3.95;;;3.63;;
32812;SDS011;19162;48.254;11.454;2023-08-30T10:52:39;2.85;;;2.65;;
32812;SDS011;19162;48.254;11.454;2023-08-30T10:55:39;2.60;;;2.40;;
32812;SDS011;19162;48.254;11.454;2023-08-30T10:58:42;2.10;;;1.90;;
32812;SDS011;19162;48.254;11.454;2023-08-30T11:01:44;2.17;;;2.00;;
32812;SDS011;19162;48.254;11.454;2023-08-30T11:04:45;2.70;;;2.08;;
32812;SDS011;19162;48.254;11.454;2023-08-30T11:07:45;2.37;;;2.17;;
32812;SDS011;19162;48.254;11.454;2023-08-30T11:10:46;2.97;;;2.78;;
32812;SDS011;19162;48.254;11.454;2023-08-30T11:13:46;2.37;;;1.93;;
32812;SDS011;19162;48.254;11.454;2023-08-30T11:16:47;2.67;;;1.90;;
32812;SDS011;19162;48.254;11.454;2023-08-30T11:19:50;2.13;;;1.77;;
32812;SDS011;19162;48.254;11.454;2023-08-30T11:22:51;2.10;;;2.00;;
32812;SDS011;19162;48.254;11.454;2023-08-30T11:25:53;2.77;;;1.90;;
32812;SDS011;19162;48.254;11.454;2023-08-30T11:28:53;2.40;;;2.20;;
32812;SDS011;19162;48.254;11.454;2023-08-30T11:31:53;2.30;;;1.93;;
32812;SDS011;19162;48.254;11.454;2023-08-30T11:34:57;2.38;;;1.95;;
32812;SDS011;19162;48.254;11.454;2023-08-30T11:37:58;3.05;;;2.00;;
32812;SDS011;19162;48.254;11.454;2023-08-30T11:40:59;2.42;;;1.95;;
32812;SDS011;19162;48.254;11.454;2023-08-30T11:43:59;2.17;;;1.97;;
32812;SDS011;19162;48.254;11.454;2023-08-30T11:47:00;2.38;;;1.70;;
32812;SDS011;19162;48.254;11.454;2023-08-30T11:50:00;2.80;;;2.00;;
32812;SDS011;19162;48.254;11.454;2023-08-30T11:53:01;1.42;;;1.33;;
32812;SDS011;19162;48.254;11.454;2023-08-30T11:56:02;4.70;;;1.52;;
32812;SDS011;19162;48.254;11.454;2023-08-30T11:59:03;1.73;;;1.38;;
32812;SDS011;19162;48.254;11.454;2023-08-30T12:02:04;1.80;;;1.70;;
32812;SDS011;19162;48.254;11.454;2023-08-30T12:05:04;2.20;;;2.10;;
32812;SDS011;19162;48.254;11.454;2023-08-30T12:08:04;3.50;;;2.40;;
32812;SDS011;19162;48.254;11.454;2023-08-30T12:11:05;2.00;;;1.90;;
32812;SDS011;19162;48.254;11.454;2023-08-30T12:14:05;2.10;;;2.00;;
32812;SDS011;19162;48.254;11.454;2023-08-30T12:17:05;2.40;;;1.90;;
32812;SDS011;19162;48.254;11.454;2023-08-30T12:23:18;1.77;;;1.67;;
32812;SDS011;19162;48.254;11.454;2023-08-30T12:26:18;1.35;;;1.25;;
32812;SDS011;19162;48.254;11.454;2023-08-30T12:29:19;2.43;;;2.23;;
32812;SDS011;19162;48.254;11.454;2023-08-30T12:32:19;2.55;;;2.35;;
32812;SDS011;19162;48.254;11.454;2023-08-30T12:35:19;2.83;;;2.47;;
32812;SDS011;19162;48.254;11.454;2023-08-30T12:38:19;2.25;;;2.05;;
32812;SDS011;19162;48.254;11.454;2023-08-30T12:41:19;2.70;;;2.50;;
32812;SDS011;19162;48.254;11.454;2023-08-30T12:44:21;3.00;;;2.80;;
32812;SDS011;19162;48.254;11.454;2023-08-30T12:47:21;3.00;;;2.70;;
32812;SDS011;19162;48.254;11.454;2023-08-30T12:50:22;2.90;;;2.70;;
32812;SDS011;19162;48.254;11.454;2023-08-30T12:53:22;3.22;;;2.70;;
32812;SDS011;19162;48.254;11.454;2023-08-30T12:56:22;4.13;;;3.17;;
32812;SDS011;19162;48.254;11.454;2023-08-30T12:59:22;3.60;;;3.30;;
32812;SDS011;19162;48.254;11.454;2023-08-30T13:02:22;3.42;;;3.08;;
32812;SDS011;19162;48.254;11.454;2023-08-30T13:05:23;3.70;;;3.28;;
32812;SDS011;19162;48.254;11.454;2023-08-30T13:08:23;3.60;;;3.30;;
32812;SDS011;19162;48.254;11.454;2023-08-30T13:11:23;4.15;;;3.75;;
32812;SDS011;19162;48.254;11.454;2023-08-30T13:14:26;3.05;;;2.85;;
32812;SDS011;19162;48.254;11.454;2023-08-30T13:17:26;2.88;;;2.67;;
32812;SDS011;19162;48.254;11.454;2023-08-30T13:20:26;2.47;;;2.37;;
32812;SDS011;19162;48.254;11.454;2023-08-30T13:23:26;2.70;;;2.30;;
32812;SDS011;19162;48.254;11.454;2023-08-30T13:26:27;2.50;;;2.30;;
32812;SDS011;19162;48.254;11.454;2023-08-30T13:29:27;1.90;;;1.80;;
32812;SDS011;19162;48.254;11.454;2023-08-30T13:32:27;1.77;;;1.67;;
32812;SDS011;19162;48.254;11.454;2023-08-30T13:35:27;1.70;;;1.60;;
32812;SDS011;19162;48.254;11.454;2023-08-30T13:38:27;2.20;;;1.65;;
32812;SDS011;19162;48.254;11.454;2023-08-30T13:41:28;1.90;;;1.80;;
32812;SDS011;19162;48.254;11.454;2023-08-30T13:44:28;1.77;;;1.50;;
32812;SDS011;19162;48.254;11.454;2023-08-30T13:47:29;2.08;;;1.30;;
32812;SDS011;19162;48.254;11.454;2023-08-30T13:50:29;2.07;;;1.50;;
32812;SDS011;19162;48.254;11.454;2023-08-30T13:53:30;1.75;;;1.30;;
32812;SDS011;19162;48.254;11.454;2023-08-30T13:56:30;1.90;;;1.75;;
32812;SDS011;19162;48.254;11.454;2023-08-30T13:59:31;1.50;;;1.40;;
32812;SDS011;19162;48.254;11.454;2023-08-30T14:02:32;1.27;;;1.27;;
32812;SDS011;19162;48.254;11.454;2023-08-30T14:05:32;1.95;;;1.38;;
32812;SDS011;19162;48.254;11.454;2023-08-30T14:08:32;1.63;;;1.40;;
32812;SDS011;19162;48.254;11.454;2023-08-30T14:11:32;2.20;;;1.50;;
32812;SDS011;19162;48.254;11.454;2023-08-30T14:14:33;1.30;;;1.20;;
32812;SDS011;19162;48.254;11.454;2023-08-30T14:17:33;1.50;;;1.40;;
32812;SDS011;19162;48.254;11.454;2023-08-30T14:20:33;1.42;;;1.33;;
32812;SDS011;19162;48.254;11.454;2023-08-30T14:23:33;2.37;;;1.70;;
32812;SDS011;19162;48.254;11.454;2023-08-30T14:26:35;1.30;;;1.20;;
32812;SDS011;19162;48.254;11.454;2023-08-30T14:29:36;1.65;;;1.40;;
32812;SDS011;19162;48.254;11.454;2023-08-30T14:32:36;1.73;;;1.60;;
32812;SDS011;19162;48.254;11.454;2023-08-30T14:35:40;1.63;;;1.30;;
32812;SDS011;19162;48.254;11.454;2023-08-30T14:38:41;1.60;;;1.30;;
32812;SDS011;19162;48.254;11.454;2023-08-30T14:41:41;1.70;;;1.60;;
32812;SDS011;19162;48.254;11.454;2023-08-30T14:44:41;2.00;;;1.43;;
32812;SDS011;19162;48.254;11.454;2023-08-30T14:47:41;1.70;;;1.60;;
32812;SDS011;19162;48.254;11.454;2023-08-30T14:50:41;2.13;;;1.58;;
32812;SDS011;19162;48.254;11.454;2023-08-30T14:53:42;3.03;;;1.63;;
32812;SDS011;19162;48.254;11.454;2023-08-30T14:56:42;2.63;;;1.63;;
32812;SDS011;19162;48.254;11.454;2023-08-30T14:59:42;1.98;;;1.40;;
32812;SDS011;19162;48.254;11.454;2023-08-30T15:02:42;1.98;;;1.70;;
32812;SDS011;19162;48.254;11.454;2023-08-30T15:05:42;1.60;;;1.50;;
32812;SDS011;19162;48.254;11.454;2023-08-30T15:08:43;1.60;;;1.50;;
32812;SDS011;19162;48.254;11.454;2023-08-30T15:11:43;1.50;;;1.40;;
32812;SDS011;19162;48.254;11.454;2023-08-30T15:14:44;1.77;;;1.42;;
32812;SDS011;19162;48.254;11.454;2023-08-30T15:17:44;1.60;;;1.50;;
32812;SDS011;19162;48.254;11.454;2023-08-30T15:20:44;1.37;;;1.20;;
32812;SDS011;19162;48.254;11.454;2023-08-30T15:23:45;1.25;;;1.15;;
32812;SDS011;19162;48.254;11.454;2023-08-30T15:26:45;1.08;;;1.05;;
32812;SDS011;19162;48.254;11.454;2023-08-30T15:29:46;1.57;;;1.00;;
32812;SDS011;19162;48.254;11.454;2023-08-30T15:32:50;2.75;;;1.40;;
32812;SDS011;19162;48.254;11.454;2023-08-30T15:35:50;1.77;;;1.40;;
32812;SDS011;19162;48.254;11.454;2023-08-30T15:38:50;1.35;;;1.25;;
32812;SDS011;19162;48.254;11.454;2023-08-30T15:41:50;1.58;;;1.48;;
32812;SDS011;19162;48.254;11.454;2023-08-30T15:44:50;1.40;;;1.30;;
32812;SDS011;19162;48.254;11.454;2023-08-30T15:47:51;1.40;;;1.30;;
32812;SDS011;19162;48.254;11.454;2023-08-30T15:50:51;1.52;;;1.40;;
32812;SDS011;19162;48.254;11.454;2023-08-30T15:53:51;1.40;;;1.30;;
32812;SDS011;19162;48.254;11.454;2023-08-30T15:56:51;2.13;;;1.40;;
32812;SDS011;19162;48.254;11.454;2023-08-30T15:59:52;1.58;;;1.48;;
32812;SDS011;19162;48.254;11.454;2023-08-30T16:02:52;1.83;;;1.57;;
32812;SDS011;19162;48.254;11.454;2023-08-30T16:05:52;2.30;;;1.70;;
32812;SDS011;19162;48.254;11.454;2023-08-30T16:08:52;1.30;;;1.20;;
32812;SDS011;19162;48.254;11.454;2023-08-30T16:11:53;1.50;;;1.40;;
32812;SDS011;19162;48.254;11.454;2023-08-30T16:14:53;1.63;;;1.53;;
32812;SDS011;19162;48.254;11.454;2023-08-30T16:17:53;1.47;;;1.20;;
32812;SDS011;19162;48.254;11.454;2023-08-30T16:20:54;1.65;;;1.50;;
32812;SDS011;19162;48.254;11.454;2023-08-30T16:23:54;1.93;;;1.50;;
32812;SDS011;19162;48.254;11.454;2023-08-30T16:26:54;2.08;;;1.83;;
32812;SDS011;19162;48.254;11.454;2023-08-30T16:29:55;2.17;;;1.85;;
32812;SDS011;19162;48.254;11.454;2023-08-30T16:32:56;1.70;;;1.60;;
32812;SDS011;19162;48.254;11.454;2023-08-30T16:35:57;1.80;;;1.70;;
32812;SDS011;19162;48.254;11.454;2023-08-30T16:38:57;1.77;;;1.67;;
32812;SDS011;19162;48.254;11.454;2023-08-30T16:41:58;2.55;;;1.60;;
32812;SDS011;19162;48.254;11.454;2023-08-30T16:44:58;2.73;;;2.10;;
32812;SDS011;19162;48.254;11.454;2023-08-30T16:47:58;2.55;;;1.50;;
32812;SDS011;19162;48.254;11.454;2023-08-30T16:50:59;2.35;;;1.90;;
32812;SDS011;19162;48.254;11.454;2023-08-30T16:53:59;2.03;;;1.45;;
32812;SDS011;19162;48.254;11.454;2023-08-30T16:56:59;2.03;;;1.93;;
32812;SDS011;19162;48.254;11.454;2023-08-30T16:59:59;1.83;;;1.73;;
32812;SDS011;19162;48.254;11.454;2023-08-30T17:02:59;1.60;;;1.50;;
32812;SDS011;19162;48.254;11.454;2023-08-30T17:06:00;1.83;;;1.73;;
32812;SDS011;19162;48.254;11.454;2023-08-30T17:09:03;1.83;;;1.73;;
32812;SDS011;19162;48.254;11.454;2023-08-30T17:12:04;1.80;;;1.70;;
32812;SDS011;19162;48.254;11.454;2023-08-30T17:15:05;1.70;;;1.60;;
32812;SDS011;19162;48.254;11.454;2023-08-30T17:18:05;1.80;;;1.65;;
32812;SDS011;19162;48.254;11.454;2023-08-30T17:21:05;2.23;;;1.50;;
32812;SDS011;19162;48.254;11.454;2023-08-30T17:24:09;3.35;;;2.00;;
32812;SDS011;19162;48.254;11.454;2023-08-30T17:27:10;2.05;;;1.95;;
32812;SDS011;19162;48.254;11.454;2023-08-30T17:30:10;1.95;;;1.75;;
32812;SDS011;19162;48.254;11.454;2023-08-30T17:33:13;1.92;;;1.83;;
32812;SDS011;19162;48.254;11.454;2023-08-30T17:36:14;2.03;;;1.83;;
32812;SDS011;19162;48.254;11.454;2023-08-30T17:39:14;1.50;;;1.40;;
32812;SDS011;19162;48.254;11.454;2023-08-30T17:42:14;2.35;;;1.90;;
32812;SDS011;19162;48.254;11.454;2023-08-30T17:45:15;2.00;;;1.80;;
32812;SDS011;19162;48.254;11.454;2023-08-30T17:48:15;2.00;;;1.80;;
32812;SDS011;19162;48.254;11.454;2023-08-30T17:51:15;1.77;;;1.67;;
32812;SDS011;19162;48.254;11.454;2023-08-30T17:54:15;1.75;;;1.65;;